Time;durP1;ratioP1;P1;durP2;ratioP2;P2;SDS_P1;SDS_P2;PMS_P1;PMS_P2;Temp;Humidity;BMP_temperature;BMP_pressure;BME280_temperature;BME280_humidity;BME280_pressure;Samples;Min_cycle;Max_cycle;Signal;HPM_P1;HPM_P2
2022/04/06 00:02:44;;;;;;;4.70;2.75;;;10.30;95.80;;;;;;10362222;28;20408;-66
2022/04/06 00:07:44;;;;;;;5.68;3.10;;;10.30;95.80;;;;;;10351922;28;20040;-64
2022/04/06 00:12:45;;;;;;;5.43;2.58;;;10.30;95.80;;;;;;10365439;28;20392;-63
2022/04/06 00:17:46;;;;;;;7.45;3.20;;;10.30;95.80;;;;;;10351576;28;20092;-64
2022/04/06 00:22:47;;;;;;;6.70;2.63;;;10.30;95.80;;;;;;10349856;28;20058;-62
2022/04/06 00:27:47;;;;;;;8.57;3.08;;;10.30;95.80;;;;;;10365630;28;20033;-68
2022/04/06 00:32:48;;;;;;;8.23;3.25;;;10.30;95.80;;;;;;10363824;28;20014;-63
2022/04/06 00:37:49;;;;;;;7.43;3.33;;;10.30;95.80;;;;;;10365087;28;20018;-67
2022/04/06 00:42:50;;;;;;;7.13;3.50;;;10.20;95.80;;;;;;10350886;28;20045;-66
2022/04/06 00:47:53;;;;;;;9.82;3.40;;;10.20;95.80;;;;;;10357267;28;20021;-68
2022/04/06 00:52:57;;;;;;;9.10;3.60;;;10.20;95.80;;;;;;10354904;28;20037;-68
2022/04/06 00:57:58;;;;;;;10.57;3.53;;;10.20;95.80;;;;;;10363605;28;20022;-68
2022/04/06 01:02:59;;;;;;;8.55;3.78;;;10.20;95.80;;;;;;10351780;28;20428;-66
2022/04/06 01:08:01;;;;;;;9.32;3.55;;;10.20;95.80;;;;;;10351622;28;20380;-65
2022/04/06 01:13:03;;;;;;;10.65;3.95;;;10.20;95.80;;;;;;10366650;28;20053;-66
2022/04/06 01:18:04;;;;;;;8.98;4.13;;;10.20;95.80;;;;;;10349471;28;20022;-64
2022/04/06 01:23:04;;;;;;;6.63;3.42;;;10.20;95.80;;;;;;10350259;28;20054;-68
2022/04/06 01:28:07;;;;;;;10.82;3.80;;;10.20;95.80;;;;;;10364213;28;20021;-64
2022/04/06 01:33:08;;;;;;;9.57;3.70;;;10.20;95.80;;;;;;10363509;28;20454;-63
2022/04/06 01:38:09;;;;;;;6.57;3.33;;;10.20;95.80;;;;;;10361892;28;20041;-62
2022/04/06 01:43:10;;;;;;;11.60;3.58;;;10.30;95.80;;;;;;10349493;28;20559;-63
2022/04/06 01:48:13;;;;;;;8.10;3.85;;;10.20;95.80;;;;;;10356157;28;20049;-64
2022/04/06 01:53:13;;;;;;;10.63;3.75;;;10.20;96.10;;;;;;10354190;28;20034;-64
2022/04/06 01:58:14;;;;;;;8.70;3.42;;;10.20;95.80;;;;;;10362422;28;20026;-66
2022/04/06 02:03:15;;;;;;;10.50;3.10;;;10.40;95.90;;;;;;10351150;28;20447;-62
2022/04/06 02:08:15;;;;;;;9.02;3.40;;;10.20;95.80;;;;;;10349483;28;20033;-67
2022/04/06 02:13:16;;;;;;;9.50;4.10;;;10.20;95.80;;;;;;10362443;28;20034;-69
2022/04/06 02:18:17;;;;;;;8.45;3.13;;;10.20;95.80;;;;;;10344155;28;20386;-67
2022/04/06 02:23:17;;;;;;;6.78;3.20;;;10.20;95.80;;;;;;10350570;28;20053;-69
2022/04/06 02:28:18;;;;;;;6.78;3.10;;;10.20;95.80;;;;;;10368020;28;20061;-68
2022/04/06 02:33:19;;;;;;;9.63;3.03;;;10.20;95.80;;;;;;10369925;28;20040;-67
2022/04/06 02:38:19;;;;;;;9.18;3.40;;;10.20;95.80;;;;;;10368250;28;20033;-67
2022/04/06 02:43:20;;;;;;;6.85;3.20;;;10.20;95.80;;;;;;10360520;28;20026;-66
2022/04/06 02:48:21;;;;;;;9.93;3.40;;;10.20;95.80;;;;;;10357091;28;20037;-64
2022/04/06 02:53:22;;;;;;;7.82;2.70;;;10.20;95.80;;;;;;10359099;28;20026;-65
2022/04/06 02:58:23;;;;;;;10.93;3.13;;;10.20;95.80;;;;;;10369260;28;20464;-65
2022/04/06 03:03:23;;;;;;;7.68;3.17;;;10.20;95.80;;;;;;10361667;28;20026;-65
2022/04/06 03:08:24;;;;;;;11.00;3.78;;;10.20;95.80;;;;;;10357649;28;20029;-59
2022/04/06 03:13:25;;;;;;;11.48;3.33;;;10.20;95.80;;;;;;10369137;28;20030;-64
2022/04/06 03:18:26;;;;;;;8.18;3.22;;;10.20;95.80;;;;;;10353138;28;20042;-68
2022/04/06 03:23:27;;;;;;;10.80;3.20;;;10.20;95.80;;;;;;10356331;28;20077;-61
2022/04/06 03:28:28;;;;;;;9.77;3.22;;;10.20;95.80;;;;;;10368310;28;20099;-69
2022/04/06 03:33:29;;;;;;;11.90;3.63;;;10.20;96.10;;;;;;10368942;28;20044;-66
2022/04/06 03:38:30;;;;;;;7.70;3.92;;;10.20;95.80;;;;;;10365953;28;20038;-61
2022/04/06 03:43:30;;;;;;;8.52;3.03;;;10.20;95.80;;;;;;10367790;28;20026;-61
2022/04/06 03:48:31;;;;;;;10.02;3.70;;;10.20;95.90;;;;;;10367223;28;20025;-64
2022/04/06 03:53:32;;;;;;;8.85;3.00;;;10.20;95.90;;;;;;10361027;28;20032;-65
2022/04/06 03:58:33;;;;;;;13.55;3.70;;;10.20;95.80;;;;;;10364512;28;20037;-63
2022/04/06 04:03:33;;;;;;;10.48;4.00;;;10.20;95.90;;;;;;10350337;28;20112;-69
2022/04/06 04:08:34;;;;;;;8.98;3.45;;;10.20;95.90;;;;;;10358134;28;20041;-61
2022/04/06 04:13:35;;;;;;;10.30;3.65;;;10.20;95.90;;;;;;10366406;28;20125;-66
2022/04/06 04:18:36;;;;;;;9.32;3.38;;;10.20;95.90;;;;;;10350939;28;20034;-69
2022/04/06 04:23:36;;;;;;;9.95;3.47;;;10.20;95.90;;;;;;10347689;28;20054;-62
2022/04/06 04:28:37;;;;;;;9.18;3.22;;;10.20;95.90;;;;;;10365788;28;20034;-68
2022/04/06 04:33:38;;;;;;;10.52;3.53;;;10.20;95.90;;;;;;10346962;28;20037;-67
2022/04/06 04:38:38;;;;;;;6.80;3.03;;;10.20;95.90;;;;;;10354469;28;20046;-68
2022/04/06 04:43:39;;;;;;;8.30;3.00;;;9.70;95.80;;;;;;10359928;28;20028;-64
2022/04/06 04:48:40;;;;;;;6.75;2.92;;;10.20;95.90;;;;;;10340325;28;20038;-64
2022/04/06 04:53:44;;;;;;;11.95;3.35;;;10.20;95.90;;;;;;10358840;28;20026;-66
2022/04/06 04:58:44;;;;;;;8.15;3.13;;;10.20;95.80;;;;;;10365084;28;20049;-67
2022/04/06 05:03:45;;;;;;;8.48;2.40;;;10.20;95.80;;;;;;10345088;28;20092;-68
2022/04/06 05:08:46;;;;;;;7.60;2.47;;;10.20;95.80;;;;;;10368201;28;20034;-68
2022/04/06 05:13:46;;;;;;;5.80;2.50;;;10.20;95.80;;;;;;10364011;28;20476;-69
2022/04/06 05:18:48;;;;;;;4.50;2.22;;;10.20;95.80;;;;;;10343551;28;20053;-66
2022/04/06 05:23:48;;;;;;;9.80;2.72;;;10.20;95.80;;;;;;10356697;28;20404;-68
2022/04/06 05:28:49;;;;;;;7.18;2.40;;;10.20;95.80;;;;;;10363605;28;20026;-67
2022/04/06 05:33:50;;;;;;;6.78;2.28;;;10.20;95.80;;;;;;10355129;28;20130;-67
2022/04/06 05:38:51;;;;;;;7.00;2.40;;;10.20;95.80;;;;;;10362768;28;20029;-69
2022/04/06 05:43:51;;;;;;;9.43;2.50;;;10.20;95.80;;;;;;10351809;28;20033;-68
2022/04/06 05:48:52;;;;;;;7.28;2.67;;;10.20;95.80;;;;;;10363133;28;20037;-67
2022/04/06 05:53:53;;;;;;;4.93;2.10;;;10.20;95.80;;;;;;10361883;28;20018;-62
2022/04/06 05:58:53;;;;;;;6.32;2.60;;;10.20;95.70;;;;;;10353901;28;20202;-69
2022/04/06 06:03:55;;;;;;;5.47;1.90;;;10.20;95.70;;;;;;10350638;28;20468;-67
2022/04/06 06:08:55;;;;;;;5.47;2.05;;;10.20;95.70;;;;;;10353661;28;20037;-69
2022/04/06 06:13:56;;;;;;;5.60;1.98;;;10.20;95.70;;;;;;10370208;28;20412;-69
2022/04/06 06:18:57;;;;;;;5.85;1.60;;;10.20;95.70;;;;;;10351421;28;20038;-66
2022/04/06 06:24:04;;;;;;;4.40;1.92;;;10.20;95.70;;;;;;10363413;28;20556;-68
2022/04/06 06:29:05;;;;;;;2.90;1.30;;;10.20;95.70;;;;;;10357572;28;20040;-67
2022/04/06 06:34:05;;;;;;;5.35;1.85;;;10.20;95.70;;;;;;10370369;28;20032;-65
2022/04/06 06:39:06;;;;;;;3.97;1.27;;;10.20;95.60;;;;;;10363111;28;20570;-69
2022/04/06 06:44:08;;;;;;;3.95;1.40;;;10.30;95.70;;;;;;10368433;28;20056;-68
2022/04/06 06:49:08;;;;;;;5.63;1.48;;;10.20;95.60;;;;;;10350802;28;20026;-65
2022/04/06 06:54:09;;;;;;;4.57;1.50;;;10.10;95.60;;;;;;10368030;28;20018;-66
2022/04/06 06:59:10;;;;;;;4.22;1.58;;;10.10;95.60;;;;;;10366620;28;20045;-63
2022/04/06 07:04:10;;;;;;;7.43;1.65;;;10.10;95.60;;;;;;10351818;28;20046;-61
2022/04/06 07:09:11;;;;;;;5.10;1.27;;;9.90;95.50;;;;;;10354528;28;20540;-68
2022/04/06 07:14:12;;;;;;;5.45;1.38;;;10.20;95.60;;;;;;10362125;28;20129;-71
2022/04/06 07:19:13;;;;;;;4.97;1.48;;;10.20;95.50;;;;;;10354114;28;20053;-73
2022/04/06 07:24:13;;;;;;;6.53;1.30;;;10.30;95.60;;;;;;10352142;28;20353;-66
2022/04/06 07:29:15;;;;;;;4.70;1.30;;;10.20;95.60;;;;;;10343153;28;20571;-62
2022/04/06 07:34:15;;;;;;;7.10;1.38;;;10.20;95.60;;;;;;10361704;28;20392;-66
2022/04/06 07:39:16;;;;;;;4.35;1.40;;;10.20;95.60;;;;;;10360456;28;20046;-69
2022/04/06 07:44:17;;;;;;;4.35;1.20;;;10.20;95.60;;;;;;10337232;28;20034;-66
2022/04/06 07:49:18;;;;;;;5.15;1.40;;;10.20;95.60;;;;;;10328049;28;20486;-64
2022/04/06 07:54:19;;;;;;;2.70;1.23;;;10.20;95.60;;;;;;10330049;28;20184;-63
2022/04/06 07:59:20;;;;;;;5.13;2.05;;;10.30;95.60;;;;;;10335253;28;20027;-66
2022/04/06 08:04:20;;;;;;;6.72;1.60;;;10.30;95.60;;;;;;10322620;28;20871;-71
2022/04/06 08:09:21;;;;;;;6.10;1.50;;;10.30;95.60;;;;;;10349831;28;20393;-70
2022/04/06 08:14:22;;;;;;;2.92;1.27;;;10.30;95.60;;;;;;10365119;28;20065;-65
2022/04/06 08:19:23;;;;;;;4.78;1.40;;;10.30;95.60;;;;;;10332516;28;21234;-60
2022/04/06 08:24:25;;;;;;;5.07;1.25;;;10.10;95.50;;;;;;10344008;28;20100;-67
2022/04/06 08:29:26;;;;;;;6.88;1.67;;;10.30;95.50;;;;;;10359232;28;20027;-69
2022/04/06 08:34:27;;;;;;;6.72;1.73;;;10.30;95.50;;;;;;10347525;28;20116;-65
2022/04/06 08:39:28;;;;;;;3.42;1.45;;;10.30;95.60;;;;;;10344273;28;20038;-61
2022/04/06 08:44:28;;;;;;;4.82;1.73;;;10.30;95.60;;;;;;10343271;28;20230;-63
2022/04/06 08:49:30;;;;;;;7.22;1.50;;;10.30;95.60;;;;;;10346268;28;20572;-69
2022/04/06 08:54:30;;;;;;;5.28;1.40;;;10.30;95.70;;;;;;10354859;28;20018;-70
2022/04/06 08:59:32;;;;;;;7.35;1.58;;;10.30;95.70;;;;;;10346737;28;20493;-70
2022/04/06 09:04:35;;;;;;;5.28;2.15;;;10.40;95.80;;;;;;10336509;28;20022;-67
2022/04/06 09:09:36;;;;;;;7.07;1.55;;;10.40;95.70;;;;;;10347740;28;20056;-72
2022/04/06 09:14:37;;;;;;;4.70;1.50;;;10.50;95.70;;;;;;10343537;28;20018;-70
2022/04/06 09:19:44;;;;;;;5.20;1.60;;;10.40;95.70;;;;;;10345030;28;20037;-73
2022/04/06 09:24:57;;;;;;;3.53;1.70;;;10.50;95.70;;;;;;10345103;28;20053;-72
2022/04/06 09:29:59;;;;;;;6.20;1.50;;;10.50;95.80;;;;;;10355874;28;20033;-70
2022/04/06 09:34:59;;;;;;;4.80;2.28;;;10.50;95.70;;;;;;10359863;28;20481;-64
2022/04/06 09:40:08;;;;;;;6.13;1.65;;;10.90;95.80;;;;;;10358936;28;20045;-70
2022/04/06 09:50:29;;;;;;;7.82;1.77;;;10.50;95.80;;;;;;10351883;28;20034;-60
2022/04/06 09:55:30;;;;;;;6.78;1.60;;;10.50;95.80;;;;;;10355034;28;20018;-60
2022/04/06 10:00:31;;;;;;;4.15;1.42;;;10.60;95.80;;;;;;10351908;28;20038;-60
2022/04/06 10:05:34;;;;;;;3.72;2.10;;;10.60;95.80;;;;;;10335515;28;20034;-65
2022/04/06 10:10:41;;;;;;;3.65;2.10;;;10.50;95.80;;;;;;10360861;28;20068;-69
2022/04/06 10:15:42;;;;;;;4.95;2.20;;;10.60;96.00;;;;;;10358643;28;20056;-69
2022/04/06 10:20:52;;;;;;;4.15;2.13;;;10.70;95.90;;;;;;10347518;28;20038;-69
2022/04/06 10:26:20;;;;;;;7.20;2.22;;;10.60;96.00;;;;;;10365315;28;20034;-65
2022/04/06 10:31:26;;;;;;;9.43;2.10;;;10.60;96.10;;;;;;10351634;28;20030;-59
2022/04/06 10:36:28;;;;;;;5.90;2.15;;;10.60;96.00;;;;;;10360301;28;20022;-68
2022/04/06 10:41:29;;;;;;;4.70;2.20;;;10.60;96.10;;;;;;10359063;28;20073;-69
2022/04/06 10:46:38;;;;;;;4.07;2.17;;;10.60;96.20;;;;;;10356189;28;20030;-69
2022/04/06 10:51:43;;;;;;;6.00;2.42;;;10.60;96.30;;;;;;10331734;28;20037;-64
2022/04/06 10:56:49;;;;;;;3.53;2.05;;;10.70;96.20;;;;;;10334138;28;20034;-67
2022/04/06 11:02:11;;;;;;;3.28;2.28;;;10.60;96.30;;;;;;10343186;28;20038;-65
2022/04/06 11:07:15;;;;;;;3.72;2.22;;;10.60;96.40;;;;;;10360601;28;20481;-69
2022/04/06 11:12:16;;;;;;;5.88;2.42;;;10.70;96.50;;;;;;10367907;28;20025;-71
2022/04/06 11:17:34;;;;;;;5.10;2.17;;;10.60;96.30;;;;;;10362314;28;20026;-68
2022/04/06 11:22:56;;;;;;;4.45;3.03;;;10.70;96.40;;;;;;10360389;28;20066;-60
2022/04/06 11:28:11;;;;;;;5.00;2.63;;;10.80;96.20;;;;;;10364032;28;20436;-68
2022/04/06 11:33:12;;;;;;;8.00;2.63;;;10.90;96.30;;;;;;10367324;28;20029;-62
2022/04/06 11:38:12;;;;;;;8.65;3.97;;;10.90;96.20;;;;;;10353178;28;20090;-58
2022/04/06 11:43:22;;;;;;;9.13;3.45;;;11.00;96.50;;;;;;10366655;28;20362;-61
2022/04/06 11:48:23;;;;;;;6.70;3.42;;;11.00;96.50;;;;;;10358480;28;20026;-62
2022/04/06 11:53:28;;;;;;;9.85;3.70;;;11.10;96.40;;;;;;10354936;28;20022;-72
2022/04/06 11:58:29;;;;;;;8.40;3.58;;;11.20;96.40;;;;;;10360606;28;20037;-70
2022/04/06 12:03:34;;;;;;;9.68;3.92;;;11.20;96.30;;;;;;10335111;28;20378;-75
2022/04/06 12:08:36;;;;;;;6.93;3.53;;;11.30;96.30;;;;;;10340850;28;20109;-69
2022/04/06 12:13:39;;;;;;;10.02;4.18;;;11.30;96.30;;;;;;10356806;28;20022;-73
2022/04/06 12:18:41;;;;;;;7.85;3.55;;;11.20;96.40;;;;;;10356677;28;20048;-76
2022/04/06 12:23:45;;;;;;;4.88;3.40;;;11.20;96.40;;;;;;10333360;28;20612;-69
2022/04/06 12:28:58;;;;;;;6.72;3.60;;;11.20;96.50;;;;;;10331503;28;20515;-71
2022/04/06 12:33:59;;;;;;;7.18;3.85;;;11.30;96.70;;;;;;10362488;28;20076;-74
2022/04/06 12:39:02;;;;;;;5.90;3.65;;;11.30;96.60;;;;;;10363439;28;20037;-68
2022/04/06 12:44:14;;;;;;;8.43;4.05;;;11.30;96.70;;;;;;10363780;28;20076;-70
2022/04/06 12:49:37;;;;;;;9.52;3.65;;;11.40;96.80;;;;;;10355558;28;20161;-69
2022/04/06 12:54:40;;;;;;;7.55;3.72;;;11.40;96.70;;;;;;10354651;28;20120;-67
2022/04/06 12:59:42;;;;;;;7.40;4.03;;;11.40;96.70;;;;;;10356400;28;20271;-73
2022/04/06 13:04:43;;;;;;;8.02;3.95;;;11.30;96.70;;;;;;10349863;28;20077;-73
2022/04/06 13:09:55;;;;;;;7.43;4.18;;;11.30;96.80;;;;;;10362786;28;20416;-68
2022/04/06 13:14:58;;;;;;;7.55;3.42;;;11.30;97.00;;;;;;10361037;28;20022;-71
2022/04/06 13:20:02;;;;;;;8.10;3.90;;;11.30;97.00;;;;;;10345699;28;20125;-67
2022/04/06 13:25:04;;;;;;;6.68;3.65;;;11.30;97.00;;;;;;10362331;28;20069;-74
2022/04/06 13:30:07;;;;;;;9.93;3.65;;;11.30;97.00;;;;;;10344806;28;20493;-73
2022/04/06 13:35:08;;;;;;;5.88;2.78;;;11.30;97.00;;;;;;10361866;28;20037;-69
2022/04/06 13:40:10;;;;;;;11.65;3.55;;;11.30;97.10;;;;;;10356767;28;20440;-71
2022/04/06 13:45:10;;;;;;;6.97;3.60;;;11.20;97.20;;;;;;10361620;28;20077;-68
2022/04/06 13:50:11;;;;;;;9.35;4.72;;;11.20;97.20;;;;;;10354815;28;20133;-67
2022/04/06 13:55:16;;;;;;;5.68;3.50;;;11.20;97.30;;;;;;10360340;28;20029;-64
2022/04/06 14:00:21;;;;;;;7.63;3.38;;;11.20;97.40;;;;;;10356337;28;20052;-68
2022/04/06 14:05:22;;;;;;;4.47;3.03;;;11.10;97.50;;;;;;10357582;28;20026;-66
2022/04/06 14:10:23;;;;;;;8.27;2.92;;;11.10;97.50;;;;;;10361616;28;20505;-72
2022/04/06 14:15:23;;;;;;;5.70;2.92;;;11.10;97.50;;;;;;10358773;28;20026;-70
2022/04/06 14:20:24;;;;;;;5.07;2.55;;;11.10;97.60;;;;;;10322242;28;20115;-62
2022/04/06 14:25:25;;;;;;;5.85;2.42;;;11.10;97.60;;;;;;10331574;28;20148;-64
2022/04/06 14:30:26;;;;;;;3.55;2.22;;;11.10;97.70;;;;;;10330536;28;20129;-62
2022/04/06 14:35:27;;;;;;;5.00;2.45;;;11.10;97.70;;;;;;10331025;28;20039;-63
2022/04/06 14:40:28;;;;;;;3.03;2.42;;;11.10;97.70;;;;;;10331769;28;20125;-60
2022/04/06 14:45:29;;;;;;;2.97;2.05;;;11.10;97.70;;;;;;10328187;28;20357;-63
2022/04/06 14:50:30;;;;;;;4.78;2.50;;;11.10;97.70;;;;;;10339865;28;20446;-60
2022/04/06 14:55:30;;;;;;;4.90;2.20;;;11.10;97.70;;;;;;10342580;28;20053;-68
2022/04/06 15:00:33;;;;;;;6.22;2.30;;;11.10;97.70;;;;;;10348866;28;20092;-66
2022/04/06 15:05:35;;;;;;;4.38;2.40;;;11.10;97.70;;;;;;10347458;28;20038;-63
2022/04/06 15:10:37;;;;;;;3.00;2.20;;;11.10;97.70;;;;;;10358726;28;20026;-65
2022/04/06 15:15:38;;;;;;;6.88;2.90;;;11.20;97.80;;;;;;10362119;28;20041;-67
2022/04/06 15:20:38;;;;;;;3.80;2.60;;;11.20;97.90;;;;;;10348667;28;20487;-69
2022/04/06 15:25:44;;;;;;;5.68;3.08;;;11.20;97.70;;;;;;10340285;28;20074;-73
2022/04/06 15:30:45;;;;;;;3.83;2.42;;;11.20;97.80;;;;;;10349626;28;20027;-75
2022/04/06 15:41:05;;;;;;;3.60;2.50;;;11.30;97.80;;;;;;10368980;28;20060;-60
2022/04/06 15:46:06;;;;;;;5.00;2.20;;;11.30;98.00;;;;;;10369542;28;20030;-71
2022/04/06 15:51:07;;;;;;;3.03;2.55;;;11.30;97.70;;;;;;10360147;28;20068;-63
2022/04/06 15:56:15;;;;;;;4.18;2.20;;;11.20;97.70;;;;;;10360661;28;20014;-72
2022/04/06 16:01:16;;;;;;;7.68;2.38;;;11.20;97.80;;;;;;10342899;28;20038;-71
2022/04/06 16:06:16;;;;;;;10.25;2.70;;;11.30;97.90;;;;;;10358796;28;20033;-61
2022/04/06 16:11:17;;;;;;;7.25;2.97;;;11.30;97.80;;;;;;10355606;28;20063;-68
2022/04/06 16:16:18;;;;;;;8.52;2.70;;;11.30;97.80;;;;;;10362711;28;20029;-63
2022/04/06 16:21:19;;;;;;;8.40;2.88;;;11.30;97.70;;;;;;10353886;28;20049;-75
2022/04/06 16:26:20;;;;;;;4.40;2.80;;;11.30;97.70;;;;;;10354661;28;20058;-69
2022/04/06 16:31:23;;;;;;;6.78;2.65;;;11.30;97.70;;;;;;10361889;28;20025;-73
2022/04/06 16:36:24;;;;;;;7.18;2.90;;;11.30;97.70;;;;;;10363834;28;20030;-59
2022/04/06 16:41:25;;;;;;;3.28;2.25;;;11.30;97.70;;;;;;10342616;28;20057;-61
2022/04/06 16:46:29;;;;;;;4.25;2.35;;;11.30;97.70;;;;;;10338132;28;20038;-60
2022/04/06 16:56:53;;;;;;;3.17;2.05;;;11.20;97.70;;;;;;10350507;28;20014;-72
2022/04/06 17:01:53;;;;;;;1.50;1.27;;;11.20;97.70;;;;;;10342400;28;20485;-59
2022/04/06 17:06:54;;;;;;;3.03;1.48;;;11.20;97.70;;;;;;10355530;28;20026;-59
2022/04/06 17:11:55;;;;;;;1.98;1.20;;;11.20;97.90;;;;;;10356619;28;20540;-60
2022/04/06 17:16:57;;;;;;;1.90;1.20;;;11.10;97.60;;;;;;10348406;28;20493;-60
2022/04/06 17:21:57;;;;;;;3.22;1.00;;;11.10;97.60;;;;;;10345666;28;20058;-60
2022/04/06 17:26:58;;;;;;;1.58;1.15;;;11.10;97.70;;;;;;10361042;28;20041;-62
2022/04/06 17:32:00;;;;;;;2.80;1.60;;;11.10;97.70;;;;;;10350265;28;20523;-61
2022/04/06 17:37:01;;;;;;;1.77;1.40;;;11.00;97.70;;;;;;10360976;28;20084;-59
2022/04/06 17:42:01;;;;;;;1.83;1.20;;;11.00;97.70;;;;;;10353911;28;20448;-71
2022/04/06 17:47:03;;;;;;;2.72;1.38;;;11.00;97.70;;;;;;10354509;28;20044;-61
2022/04/06 17:52:04;;;;;;;2.50;1.70;;;11.00;97.80;;;;;;10349613;28;20088;-57
2022/04/06 17:57:06;;;;;;;4.13;2.78;;;11.00;97.80;;;;;;10359513;28;20506;-67
2022/04/06 18:02:08;;;;;;;3.55;1.85;;;11.00;97.90;;;;;;10327017;28;20053;-64
2022/04/06 18:07:09;;;;;;;3.25;2.30;;;10.90;97.80;;;;;;10342047;28;20105;-64
2022/04/06 18:17:30;;;;;;;5.57;2.60;;;10.90;97.90;;;;;;10351892;28;20042;-60
2022/04/06 18:22:32;;;;;;;3.92;2.85;;;10.90;98.00;;;;;;10353082;28;20053;-61
2022/04/06 18:27:33;;;;;;;7.75;3.20;;;10.90;98.00;;;;;;10341964;28;20030;-60
2022/04/06 18:32:35;;;;;;;3.63;2.70;;;10.90;98.00;;;;;;10341196;28;20029;-59
2022/04/06 18:37:36;;;;;;;4.20;3.15;;;10.90;98.00;;;;;;10351335;28;20488;-60
2022/04/06 18:42:37;;;;;;;5.47;3.30;;;10.80;98.00;;;;;;10340796;28;20069;-67
2022/04/06 18:47:38;;;;;;;5.70;3.22;;;10.80;98.00;;;;;;10348165;28;20475;-63
2022/04/06 18:52:40;;;;;;;5.68;3.53;;;10.90;98.20;;;;;;10356416;28;20038;-60
2022/04/06 18:57:41;;;;;;;5.10;3.13;;;10.90;98.20;;;;;;10348663;28;20030;-62
2022/04/06 19:02:42;;;;;;;4.25;3.10;;;10.90;98.20;;;;;;10335911;28;20038;-63
2022/04/06 19:07:43;;;;;;;3.85;3.05;;;10.90;98.30;;;;;;10343596;28;20037;-59
2022/04/06 19:12:44;;;;;;;4.93;3.08;;;10.90;98.30;;;;;;10343435;28;20532;-60
2022/04/06 19:17:44;;;;;;;3.40;2.80;;;10.90;98.30;;;;;;10348362;28;20224;-62
2022/04/06 19:22:46;;;;;;;3.47;2.72;;;10.90;98.40;;;;;;10341096;28;20065;-67
2022/04/06 19:27:47;;;;;;;4.53;3.30;;;10.90;98.40;;;;;;10344128;28;20045;-67
2022/04/06 19:32:47;;;;;;;4.55;3.20;;;10.90;98.50;;;;;;10344845;28;20369;-61
2022/04/06 19:37:49;;;;;;;4.78;3.20;;;10.90;98.50;;;;;;10338605;28;20022;-62
2022/04/06 19:42:49;;;;;;;4.13;3.13;;;10.90;98.50;;;;;;10336631;28;20046;-60
2022/04/06 19:47:50;;;;;;;4.05;3.20;;;10.90;98.60;;;;;;10331391;28;20046;-60
2022/04/06 19:52:51;;;;;;;4.55;3.00;;;10.90;98.60;;;;;;10336688;28;20038;-60
2022/04/06 19:57:51;;;;;;;3.80;2.90;;;10.90;98.60;;;;;;10336875;28;20400;-61
2022/04/06 20:02:52;;;;;;;3.95;3.05;;;10.90;98.60;;;;;;10332569;28;20035;-63
2022/04/06 20:07:53;;;;;;;4.05;3.30;;;10.90;98.60;;;;;;10334962;28;20453;-64
2022/04/06 20:12:54;;;;;;;4.40;3.08;;;10.90;98.60;;;;;;10335208;28;20069;-64
2022/04/06 20:17:54;;;;;;;4.55;3.35;;;10.90;98.60;;;;;;10339673;28;20348;-64
2022/04/06 20:22:55;;;;;;;4.78;3.55;;;10.90;98.50;;;;;;10339745;28;20390;-60
2022/04/06 20:27:57;;;;;;;4.55;3.63;;;10.90;98.60;;;;;;10349862;28;20297;-62
2022/04/06 20:32:57;;;;;;;5.03;3.50;;;10.90;98.50;;;;;;10341979;28;20042;-63
2022/04/06 20:37:58;;;;;;;6.07;3.30;;;10.90;98.60;;;;;;10346048;28;20456;-64
2022/04/06 20:42:59;;;;;;;4.75;3.33;;;10.90;98.50;;;;;;10342318;28;20174;-66
2022/04/06 20:47:59;;;;;;;3.75;2.85;;;10.90;98.50;;;;;;10349177;28;20029;-64
2022/04/06 20:53:00;;;;;;;3.88;3.10;;;10.90;98.50;;;;;;10352944;28;20038;-63
2022/04/06 20:58:01;;;;;;;6.70;2.90;;;10.90;98.50;;;;;;10356781;28;20760;-62
2022/04/06 21:03:05;;;;;;;4.45;3.13;;;10.90;98.50;;;;;;10386760;28;20132;-65
2022/04/06 21:08:06;;;;;;;4.00;3.05;;;10.90;98.50;;;;;;10363315;28;20028;-65
2022/04/06 21:13:06;;;;;;;5.35;3.53;;;11.00;98.60;;;;;;10358799;28;20412;-66
2022/04/06 21:18:14;;;;;;;5.78;3.33;;;11.00;98.30;;;;;;10378206;28;20018;-61
2022/04/06 21:23:14;;;;;;;4.95;3.33;;;11.00;98.30;;;;;;10359403;28;20548;-62
2022/04/06 21:28:15;;;;;;;3.72;2.80;;;11.00;98.30;;;;;;10342840;28;20129;-62
2022/04/06 21:33:16;;;;;;;4.75;3.05;;;11.00;98.30;;;;;;10332380;28;20041;-63
2022/04/06 21:38:16;;;;;;;4.63;2.95;;;11.00;98.40;;;;;;10338368;28;20026;-66
2022/04/06 21:43:17;;;;;;;4.63;3.05;;;10.90;98.30;;;;;;10328344;28;20088;-64
2022/04/06 21:48:18;;;;;;;5.13;2.58;;;10.90;98.30;;;;;;10338478;28;20033;-60
2022/04/06 21:53:20;;;;;;;4.05;2.78;;;10.90;98.30;;;;;;10341886;28;20418;-61
2022/04/06 21:58:21;;;;;;;5.28;2.90;;;10.90;98.30;;;;;;10357137;28;20382;-60
2022/04/06 22:03:21;;;;;;;4.13;2.85;;;10.90;98.30;;;;;;10351169;28;20053;-61
2022/04/06 22:08:22;;;;;;;4.07;2.72;;;10.90;98.30;;;;;;10353394;28;20033;-61
2022/04/06 22:13:23;;;;;;;3.35;2.60;;;10.80;98.30;;;;;;10377745;28;20191;-63
2022/04/06 22:18:24;;;;;;;5.00;2.70;;;10.80;98.30;;;;;;10355105;28;20473;-60
2022/04/06 22:23:25;;;;;;;4.90;2.67;;;10.80;98.20;;;;;;10361606;28;20100;-60
2022/04/06 22:28:26;;;;;;;3.45;2.50;;;10.80;98.20;;;;;;10354182;28;20034;-62
2022/04/06 22:33:27;;;;;;;4.25;2.50;;;10.80;98.20;;;;;;10361834;28;20022;-62
2022/04/06 22:38:28;;;;;;;2.88;1.80;;;10.80;98.20;;;;;;10359909;28;20033;-60
2022/04/06 22:43:28;;;;;;;3.30;2.08;;;10.80;98.20;;;;;;10365026;28;20128;-60
2022/04/06 22:48:29;;;;;;;4.45;2.60;;;10.80;98.20;;;;;;10364675;28;20436;-65
2022/04/06 22:53:29;;;;;;;2.80;2.05;;;10.80;98.20;;;;;;10367453;28;20120;-60
2022/04/06 22:58:30;;;;;;;3.50;2.20;;;10.80;98.20;;;;;;10366655;28;20432;-64
2022/04/06 23:03:31;;;;;;;5.53;2.55;;;10.80;98.20;;;;;;10364227;28;20041;-60
2022/04/06 23:08:32;;;;;;;5.15;2.20;;;10.70;98.10;;;;;;10355764;28;20112;-62
2022/04/06 23:13:33;;;;;;;5.85;2.53;;;10.80;98.20;;;;;;10368330;28;20038;-61
2022/04/06 23:18:33;;;;;;;5.00;2.30;;;10.70;98.10;;;;;;10366040;28;20029;-61
2022/04/06 23:23:34;;;;;;;3.10;2.03;;;10.70;98.10;;;;;;10366500;28;20389;-60
2022/04/06 23:28:37;;;;;;;2.58;1.67;;;10.70;98.10;;;;;;10353249;28;20030;-64
2022/04/06 23:33:39;;;;;;;2.22;1.70;;;10.70;98.10;;;;;;10367981;28;20408;-59
2022/04/06 23:38:40;;;;;;;4.35;1.80;;;10.70;98.10;;;;;;10367702;28;20115;-67
2022/04/06 23:43:41;;;;;;;4.25;1.90;;;10.70;98.10;;;;;;10364180;28;20184;-61
2022/04/06 23:48:41;;;;;;;2.15;1.80;;;10.70;98.10;;;;;;10365166;28;20168;-66
2022/04/06 23:53:42;;;;;;;3.75;2.13;;;10.70;98.10;;;;;;10362604;28;20026;-65
2022/04/06 23:58:43;;;;;;;5.45;1.63;;;10.70;98.10;;;;;;10365488;28;20156;-61
